createdAt,value
2023-03-07T00:00:08.322Z,99.90
2023-03-07T00:02:35.392Z,99.90
2023-03-07T00:05:02.548Z,99.90
2023-03-07T00:07:31.517Z,99.90
2023-03-07T00:09:58.598Z,99.90
2023-03-07T00:12:25.818Z,99.90
2023-03-07T00:14:52.821Z,99.90
2023-03-07T00:17:19.832Z,99.90
2023-03-07T00:19:47.185Z,99.90
2023-03-07T00:22:14.721Z,99.90
2023-03-07T00:24:41.824Z,99.90
2023-03-07T00:27:08.931Z,99.90
2023-03-07T00:29:35.932Z,99.90
2023-03-07T00:32:03.211Z,99.90
2023-03-07T00:34:30.276Z,99.90
2023-03-07T00:36:57.344Z,99.90
2023-03-07T00:39:25.424Z,99.90
2023-03-07T00:41:52.446Z,99.90
2023-03-07T00:44:19.455Z,99.90
2023-03-07T00:46:46.493Z,99.90
2023-03-07T00:49:13.575Z,99.90
2023-03-07T00:51:40.765Z,99.90
2023-03-07T00:54:08.295Z,99.90
2023-03-07T00:56:36.287Z,99.90
2023-03-07T00:59:03.483Z,99.90
2023-03-07T01:01:30.677Z,99.90
2023-03-07T01:03:58.046Z,99.90
2023-03-07T01:06:26.080Z,99.90
2023-03-07T01:08:55.171Z,99.90
2023-03-07T01:11:22.471Z,99.90
2023-03-07T01:13:49.700Z,99.90
2023-03-07T01:16:17.757Z,99.90
2023-03-07T01:18:45.336Z,99.90
2023-03-07T01:21:16.978Z,99.90
2023-03-07T01:23:44.407Z,99.90
2023-03-07T01:26:12.629Z,99.90
2023-03-07T01:28:40.067Z,99.90
2023-03-07T01:31:07.636Z,99.90
2023-03-07T01:33:34.856Z,99.90
2023-03-07T01:36:02.340Z,99.90
2023-03-07T01:38:33.891Z,99.90
2023-03-07T01:41:03.606Z,99.90
2023-03-07T01:43:31.486Z,99.90
2023-03-07T01:46:18.785Z,99.90
2023-03-07T01:49:16.364Z,99.90
2023-03-07T01:51:44.915Z,99.90
2023-03-07T01:54:12.132Z,99.90
2023-03-07T01:56:40.185Z,99.90
2023-03-07T01:59:07.502Z,99.90
2023-03-07T02:01:34.691Z,99.90
2023-03-07T02:04:08.293Z,99.90
2023-03-07T02:06:35.560Z,99.90
2023-03-07T02:09:02.891Z,99.90
2023-03-07T02:11:29.958Z,99.90
2023-03-07T02:13:57.058Z,99.90
2023-03-07T02:16:24.199Z,99.90
2023-03-07T02:18:52.103Z,99.90
2023-03-07T02:21:22.223Z,99.90
2023-03-07T02:23:52.394Z,99.90
2023-03-07T02:26:24.407Z,99.90
2023-03-07T02:28:51.531Z,99.90
2023-03-07T02:31:19.431Z,99.90
2023-03-07T02:33:46.501Z,99.90
2023-03-07T02:36:14.809Z,99.90
2023-03-07T02:38:56.827Z,99.90
2023-03-07T02:41:26.278Z,99.90
2023-03-07T02:43:53.461Z,99.90
2023-03-07T02:46:20.602Z,99.90
2023-03-07T02:48:47.785Z,99.90
2023-03-07T02:51:15.259Z,99.90
2023-03-07T02:53:45.809Z,99.90
2023-03-07T02:56:12.971Z,99.90
2023-03-07T02:58:40.067Z,99.90
2023-03-07T03:01:07.158Z,99.90
2023-03-07T03:03:34.620Z,99.90
2023-03-07T03:06:01.672Z,99.90
2023-03-07T03:08:28.736Z,99.90
2023-03-07T03:10:56.003Z,99.90
2023-03-07T03:13:26.291Z,99.90
2023-03-07T03:15:57.031Z,99.90
2023-03-07T03:18:24.501Z,99.90
2023-03-07T03:20:51.896Z,99.90
2023-03-07T03:23:18.929Z,99.90
2023-03-07T03:25:46.191Z,99.90
2023-03-07T03:28:13.498Z,99.90
2023-03-07T03:30:40.624Z,99.90
2023-03-07T03:33:07.870Z,99.90
2023-03-07T03:35:35.593Z,99.90
2023-03-07T03:38:02.792Z,99.90
2023-03-07T03:40:30.288Z,99.90
2023-03-07T03:42:57.607Z,99.90
2023-03-07T03:45:25.900Z,99.90
2023-03-07T03:47:52.967Z,99.90
2023-03-07T03:50:20.044Z,99.90
2023-03-07T03:52:47.196Z,99.90
2023-03-07T03:55:14.293Z,99.90
2023-03-07T03:57:41.510Z,99.90
2023-03-07T04:00:09.248Z,99.90
2023-03-07T04:02:39.532Z,99.90
2023-03-07T04:05:10.100Z,99.90
2023-03-07T04:07:37.216Z,99.90
2023-03-07T04:10:05.107Z,99.90
2023-03-07T04:12:34.803Z,99.90
2023-03-07T04:15:01.895Z,99.90
2023-03-07T04:17:30.018Z,99.90
2023-03-07T04:19:57.158Z,99.90
2023-03-07T04:22:25.358Z,99.90
2023-03-07T04:24:52.438Z,99.90
2023-03-07T04:27:19.602Z,99.90
2023-03-07T04:29:46.801Z,99.90
2023-03-07T04:32:18.926Z,99.90
2023-03-07T04:34:46.162Z,99.90
2023-03-07T04:37:13.298Z,99.90
2023-03-07T04:39:40.363Z,99.90
2023-03-07T04:42:08.936Z,99.90
2023-03-07T04:44:37.047Z,99.90
2023-03-07T04:47:04.193Z,99.90
2023-03-07T04:49:34.218Z,99.90
2023-03-07T04:52:02.417Z,99.90
2023-03-07T04:54:29.990Z,99.90
2023-03-07T04:56:57.550Z,99.90
2023-03-07T04:59:24.805Z,99.90
2023-03-07T05:01:51.983Z,99.90
2023-03-07T05:04:19.052Z,99.90
2023-03-07T05:06:46.710Z,99.90
2023-03-07T05:09:14.556Z,99.90
2023-03-07T05:11:42.042Z,99.90
2023-03-07T05:14:09.132Z,99.90
2023-03-07T05:16:36.289Z,99.90
2023-03-07T05:19:05.918Z,99.90
2023-03-07T05:21:33.873Z,99.90
2023-03-07T05:24:01.325Z,99.90
2023-03-07T05:26:29.569Z,99.90
2023-03-07T05:28:56.852Z,99.90
2023-03-07T05:31:24.390Z,99.90
2023-03-07T05:33:51.596Z,99.90
2023-03-07T05:36:18.705Z,99.90
2023-03-07T05:38:45.842Z,99.90
2023-03-07T05:41:13.065Z,99.90
2023-03-07T05:43:40.758Z,99.90
2023-03-07T05:46:08.042Z,99.90
2023-03-07T05:48:35.478Z,99.90
2023-03-07T05:51:02.506Z,99.90
2023-03-07T05:53:30.431Z,99.90
2023-03-07T05:55:57.709Z,99.90
2023-03-07T05:58:24.831Z,99.90
2023-03-07T06:00:51.945Z,99.90
2023-03-07T06:03:19.686Z,99.90
2023-03-07T06:05:49.122Z,99.90
2023-03-07T06:08:16.505Z,99.90
2023-03-07T06:10:43.805Z,99.90
2023-03-07T06:13:19.110Z,99.90
2023-03-07T06:15:48.560Z,99.90
2023-03-07T06:18:15.863Z,99.90
2023-03-07T06:20:42.969Z,99.90
2023-03-07T06:23:12.399Z,99.90
2023-03-07T06:25:40.931Z,99.90
2023-03-07T06:28:08.187Z,99.90
2023-03-07T06:30:35.317Z,99.90
2023-03-07T06:33:02.432Z,99.90
2023-03-07T06:35:29.617Z,99.90
2023-03-07T06:37:56.825Z,99.90
2023-03-07T06:40:23.863Z,99.90
2023-03-07T06:42:51.929Z,99.90
2023-03-07T06:45:19.334Z,99.90
2023-03-07T06:47:46.383Z,99.90
2023-03-07T06:50:13.601Z,99.90
2023-03-07T06:52:41.027Z,99.90
2023-03-07T06:55:08.538Z,99.90
2023-03-07T06:57:35.926Z,99.90
2023-03-07T07:00:05.231Z,99.90
2023-03-07T07:02:33.215Z,99.90
2023-03-07T07:05:01.342Z,99.90
2023-03-07T07:07:29.450Z,99.90
2023-03-07T07:09:56.786Z,99.90
2023-03-07T07:12:23.906Z,99.90
2023-03-07T07:14:51.020Z,99.90
2023-03-07T07:17:18.330Z,99.90
2023-03-07T07:19:46.365Z,99.90
2023-03-07T07:22:15.906Z,99.90
2023-03-07T07:24:43.104Z,99.90
2023-03-07T07:27:12.480Z,99.90
2023-03-07T07:29:39.853Z,99.90
2023-03-07T07:32:09.208Z,99.90
2023-03-07T07:34:36.549Z,99.90
2023-03-07T07:37:04.224Z,99.90
2023-03-07T07:39:31.417Z,99.90
2023-03-07T07:41:58.587Z,99.90
2023-03-07T07:44:32.287Z,99.90
2023-03-07T07:47:03.361Z,99.90
2023-03-07T07:49:30.508Z,99.90
2023-03-07T07:51:57.693Z,99.90
2023-03-07T07:54:25.216Z,99.90
2023-03-07T07:56:52.787Z,99.90
2023-03-07T07:59:22.174Z,99.90
2023-03-07T08:01:49.701Z,99.90
2023-03-07T08:04:16.706Z,99.90
2023-03-07T08:06:44.263Z,99.90
2023-03-07T08:09:11.366Z,99.90
2023-03-07T08:11:38.666Z,99.90
2023-03-07T08:14:05.825Z,99.90
2023-03-07T08:16:32.925Z,99.90
2023-03-07T08:19:01.002Z,99.90
2023-03-07T08:21:28.136Z,99.90
2023-03-07T08:23:55.405Z,99.90
2023-03-07T08:26:22.525Z,99.90
2023-03-07T08:28:49.661Z,99.90
2023-03-07T08:31:18.164Z,99.90
2023-03-07T08:33:48.376Z,99.90
2023-03-07T08:36:15.626Z,99.90
2023-03-07T08:38:42.830Z,99.90
2023-03-07T08:41:10.145Z,99.90
2023-03-07T08:43:37.763Z,99.90
2023-03-07T08:46:05.010Z,99.90
2023-03-07T08:48:32.266Z,99.90
2023-03-07T08:51:03.835Z,99.90
2023-03-07T08:53:30.852Z,99.90
2023-03-07T08:55:57.990Z,99.90
2023-03-07T08:58:25.071Z,99.90
2023-03-07T09:00:52.162Z,99.90
2023-03-07T09:03:19.208Z,99.90
2023-03-07T09:05:46.505Z,99.90
2023-03-07T09:08:13.586Z,99.90
2023-03-07T09:10:40.698Z,99.90
2023-03-07T09:13:07.747Z,99.90
2023-03-07T09:15:35.282Z,99.90
2023-03-07T09:18:02.356Z,99.90
2023-03-07T09:20:29.417Z,99.90
2023-03-07T09:22:56.537Z,99.90
2023-03-07T09:25:23.861Z,99.90
2023-03-07T09:27:52.810Z,99.90
2023-03-07T09:30:19.960Z,99.90
2023-03-07T09:32:47.006Z,99.90
2023-03-07T09:35:15.170Z,99.90
2023-03-07T09:37:42.283Z,99.90
2023-03-07T09:40:27.742Z,99.90
2023-03-07T09:43:09.166Z,99.90
2023-03-07T09:45:42.242Z,99.90
2023-03-07T09:48:38.057Z,99.90
2023-03-07T09:51:15.779Z,99.90
2023-03-07T09:53:52.098Z,99.90
2023-03-07T09:56:24.989Z,99.90
2023-03-07T09:58:56.777Z,99.90
2023-03-07T10:01:24.334Z,99.90
2023-03-07T10:03:53.884Z,99.90
2023-03-07T10:06:25.001Z,99.90
2023-03-07T10:08:52.214Z,99.90
2023-03-07T10:11:23.258Z,99.90
2023-03-07T10:13:56.465Z,99.90
2023-03-07T10:16:23.580Z,99.90
2023-03-07T10:18:50.626Z,99.90
2023-03-07T10:21:20.941Z,99.90
2023-03-07T10:23:57.189Z,99.90
2023-03-07T10:26:27.216Z,99.90
2023-03-07T10:28:54.307Z,99.90
2023-03-07T10:31:25.602Z,99.90
2023-03-07T10:33:53.267Z,99.90
2023-03-07T10:36:21.241Z,99.90
2023-03-07T10:39:00.200Z,99.60
2023-03-07T10:41:27.350Z,99.50
2023-03-07T10:43:56.806Z,99.70
2023-03-07T10:46:27.759Z,99.30
2023-03-07T10:49:10.963Z,99.00
2023-03-07T10:51:53.942Z,98.80
2023-03-07T10:54:24.872Z,98.30
2023-03-07T10:57:25.492Z,97.70
2023-03-07T10:59:52.628Z,97.80
2023-03-07T11:02:30.203Z,97.40
2023-03-07T11:04:57.646Z,97.60
2023-03-07T11:07:25.028Z,96.90
2023-03-07T11:09:52.075Z,96.00
2023-03-07T11:12:19.854Z,95.80
2023-03-07T11:14:47.660Z,96.40
2023-03-07T11:17:18.546Z,96.00
2023-03-07T11:19:45.876Z,95.50
2023-03-07T11:22:17.144Z,95.60
2023-03-07T11:24:48.191Z,95.40
2023-03-07T11:27:23.122Z,95.30
2023-03-07T11:30:15.809Z,94.90
2023-03-07T11:32:49.974Z,95.20
2023-03-07T11:35:19.475Z,94.70
2023-03-07T11:38:02.975Z,94.90
2023-03-07T11:40:34.408Z,95.20
2023-03-07T11:43:08.829Z,94.50
2023-03-07T11:45:39.204Z,94.00
2023-03-07T11:48:25.341Z,93.50
2023-03-07T11:50:57.268Z,93.40
2023-03-07T11:53:36.931Z,94.00
2023-03-07T11:56:04.429Z,94.30
2023-03-07T11:58:40.753Z,93.50
2023-03-07T12:01:31.436Z,93.90
2023-03-07T12:04:01.774Z,94.20
2023-03-07T12:06:32.657Z,94.40
2023-03-07T12:09:02.782Z,93.60
2023-03-07T12:11:39.159Z,93.00
2023-03-07T12:14:06.976Z,92.50
2023-03-07T12:16:37.362Z,92.60
2023-03-07T12:19:40.322Z,93.20
2023-03-07T12:22:08.063Z,92.50
2023-03-07T12:24:39.918Z,92.30
2023-03-07T12:27:15.376Z,92.30
2023-03-07T12:29:44.614Z,92.70
2023-03-07T12:32:18.510Z,92.60
2023-03-07T12:34:54.666Z,92.50
2023-03-07T12:37:25.512Z,92.30
2023-03-07T12:39:53.398Z,92.80
2023-03-07T12:42:32.744Z,92.80
2023-03-07T12:45:12.962Z,92.20
2023-03-07T12:47:56.843Z,92.60
2023-03-07T12:50:44.860Z,92.30
2023-03-07T12:53:11.865Z,92.10
2023-03-07T12:55:38.914Z,92.30
2023-03-07T12:58:13.132Z,91.70
2023-03-07T13:00:41.215Z,92.40
2023-03-07T13:03:09.164Z,92.50
2023-03-07T13:05:38.319Z,92.30
2023-03-07T13:08:06.141Z,92.00
2023-03-07T13:10:33.234Z,92.20
2023-03-07T13:13:00.254Z,92.10
2023-03-07T13:15:46.638Z,92.10
2023-03-07T13:18:26.906Z,92.60
2023-03-07T13:21:07.515Z,92.20
2023-03-07T13:23:34.785Z,91.30
2023-03-07T13:26:03.073Z,92.00
2023-03-07T13:28:46.491Z,92.00
2023-03-07T13:31:16.915Z,91.60
2023-03-07T13:33:44.010Z,90.50
2023-03-07T13:36:30.067Z,90.50
2023-03-07T13:38:57.127Z,90.60
2023-03-07T13:41:43.031Z,90.90
2023-03-07T13:44:27.415Z,91.00
2023-03-07T13:46:55.838Z,90.80
2023-03-07T13:49:35.825Z,91.40
2023-03-07T13:52:15.925Z,91.30
2023-03-07T13:54:45.155Z,91.30
2023-03-07T13:57:18.607Z,90.80
2023-03-07T13:59:51.860Z,90.60
2023-03-07T14:02:19.017Z,90.50
2023-03-07T14:04:51.735Z,90.50
2023-03-07T14:07:19.696Z,90.90
2023-03-07T14:09:56.741Z,89.90
2023-03-07T14:12:34.131Z,90.40
2023-03-07T14:15:01.167Z,90.70
2023-03-07T14:17:32.737Z,90.80
2023-03-07T14:19:59.759Z,90.80
2023-03-07T14:22:41.479Z,90.50
2023-03-07T14:25:08.526Z,90.40
2023-03-07T14:27:52.101Z,90.20
2023-03-07T14:30:19.501Z,90.50
2023-03-07T14:32:46.760Z,90.20
2023-03-07T14:35:15.484Z,89.80
2023-03-07T14:37:42.860Z,90.60
2023-03-07T14:40:16.285Z,90.60
2023-03-07T14:42:56.891Z,90.40
2023-03-07T14:45:23.981Z,90.30
2023-03-07T14:47:51.176Z,89.90
2023-03-07T14:50:28.157Z,87.80
2023-03-07T14:52:59.474Z,88.20
2023-03-07T14:55:27.209Z,87.00
2023-03-07T14:57:54.673Z,86.30
2023-03-07T15:00:32.578Z,87.70
2023-03-07T15:03:02.419Z,87.30
2023-03-07T15:05:46.492Z,87.10
2023-03-07T15:08:17.518Z,85.90
2023-03-07T15:10:45.950Z,84.30
2023-03-07T15:13:27.615Z,83.80
2023-03-07T15:15:55.295Z,82.60
2023-03-07T15:18:23.361Z,82.30
2023-03-07T15:20:50.446Z,83.60
2023-03-07T15:23:19.617Z,83.10
2023-03-07T15:25:47.232Z,83.80
2023-03-07T15:28:24.353Z,84.50
2023-03-07T15:30:53.333Z,84.00
2023-03-07T15:33:22.419Z,84.10
2023-03-07T15:36:07.894Z,83.90
2023-03-07T15:38:35.119Z,84.30
2023-03-07T15:41:03.637Z,83.80
2023-03-07T15:43:34.674Z,84.70
2023-03-07T15:46:05.440Z,85.00
2023-03-07T15:48:36.737Z,85.10
2023-03-07T15:51:06.385Z,85.50
2023-03-07T15:53:33.579Z,85.30
2023-03-07T15:56:01.576Z,84.70
2023-03-07T15:58:28.685Z,85.60
2023-03-07T16:01:16.200Z,86.50
2023-03-07T16:03:59.425Z,86.60
2023-03-07T16:06:42.882Z,85.90
2023-03-07T16:09:13.715Z,87.10
2023-03-07T16:11:40.985Z,87.30
2023-03-07T16:14:26.310Z,87.00
2023-03-07T16:16:53.916Z,87.20
2023-03-07T16:19:21.057Z,87.00
2023-03-07T16:21:48.135Z,87.20
2023-03-07T16:24:15.216Z,87.90
2023-03-07T16:26:42.537Z,87.30
2023-03-07T16:29:19.827Z,88.20
2023-03-07T16:31:46.912Z,88.50
2023-03-07T16:34:21.568Z,88.20
2023-03-07T16:36:48.994Z,87.90
2023-03-07T16:39:17.937Z,89.20
2023-03-07T16:41:46.199Z,87.80
2023-03-07T16:44:16.995Z,88.30
2023-03-07T16:46:44.890Z,88.60
2023-03-07T16:49:18.466Z,88.80
2023-03-07T16:51:48.992Z,89.60
2023-03-07T16:54:21.462Z,90.20
2023-03-07T16:56:50.047Z,90.30
2023-03-07T16:59:18.079Z,90.60
2023-03-07T17:01:49.152Z,90.70
2023-03-07T17:04:16.316Z,91.50
2023-03-07T17:06:43.411Z,91.40
2023-03-07T17:09:11.186Z,91.50
2023-03-07T17:11:45.889Z,91.70
2023-03-07T17:14:12.914Z,91.80
2023-03-07T17:16:42.554Z,92.00
2023-03-07T17:19:17.020Z,92.30
2023-03-07T17:21:44.069Z,92.60
2023-03-07T17:24:11.126Z,92.60
2023-03-07T17:26:39.247Z,92.90
2023-03-07T17:29:08.180Z,93.00
2023-03-07T17:31:36.352Z,93.10
2023-03-07T17:34:03.448Z,93.20
2023-03-07T17:36:30.957Z,93.30
2023-03-07T17:38:58.139Z,93.60
2023-03-07T17:41:25.313Z,93.80
2023-03-07T17:43:52.472Z,93.90
2023-03-07T17:46:19.573Z,94.10
2023-03-07T17:48:46.696Z,94.10
2023-03-07T17:51:13.782Z,94.20
2023-03-07T17:53:40.809Z,94.20
2023-03-07T17:56:08.501Z,94.30
2023-03-07T17:58:35.605Z,94.50
2023-03-07T18:01:02.730Z,94.60
2023-03-07T18:03:29.816Z,94.80
2023-03-07T18:05:56.906Z,95.00
2023-03-07T18:08:23.973Z,95.30
2023-03-07T18:10:51.188Z,95.00
2023-03-07T18:13:18.237Z,95.10
2023-03-07T18:15:45.965Z,95.30
2023-03-07T18:18:12.998Z,95.40
2023-03-07T18:20:40.201Z,95.40
2023-03-07T18:23:07.482Z,95.50
2023-03-07T18:25:34.521Z,95.50
2023-03-07T18:28:02.207Z,95.60
2023-03-07T18:30:29.314Z,95.70
2023-03-07T18:32:56.364Z,95.70
2023-03-07T18:35:23.520Z,95.80
2023-03-07T18:37:50.578Z,95.90
2023-03-07T18:40:20.354Z,96.00
2023-03-07T18:42:47.488Z,96.00
2023-03-07T18:45:14.613Z,96.10
2023-03-07T18:47:41.984Z,96.30
2023-03-07T18:50:10.092Z,96.40
2023-03-07T18:52:38.131Z,96.50
2023-03-07T18:55:05.374Z,96.60
2023-03-07T18:57:33.506Z,96.60
2023-03-07T19:00:00.584Z,96.80
2023-03-07T19:02:27.700Z,96.90
2023-03-07T19:04:54.928Z,97.00
2023-03-07T19:07:23.276Z,97.10
2023-03-07T19:09:53.622Z,97.10
2023-03-07T19:12:20.899Z,97.20
2023-03-07T19:14:47.925Z,97.20
2023-03-07T19:17:15.160Z,97.30
2023-03-07T19:19:42.176Z,97.40
2023-03-07T19:22:10.851Z,97.40
2023-03-07T19:24:39.024Z,97.50
2023-03-07T19:27:07.150Z,97.60
2023-03-07T19:29:34.842Z,97.80
2023-03-07T19:32:03.152Z,97.90
2023-03-07T19:34:30.389Z,98.00
2023-03-07T19:36:57.413Z,98.40
2023-03-07T19:39:24.473Z,98.40
2023-03-07T19:41:51.521Z,98.50
2023-03-07T19:44:18.549Z,98.60
2023-03-07T19:46:48.516Z,98.60
2023-03-07T19:49:15.899Z,98.50
2023-03-07T19:51:42.974Z,98.50
2023-03-07T19:54:12.559Z,98.60
2023-03-07T19:56:39.571Z,98.60
2023-03-07T19:59:08.208Z,98.70
2023-03-07T20:01:35.419Z,98.80
2023-03-07T20:04:04.699Z,99.10
2023-03-07T20:06:32.808Z,98.90
2023-03-07T20:08:59.937Z,98.90
2023-03-07T20:11:33.506Z,98.70
2023-03-07T20:14:01.051Z,98.80
2023-03-07T20:16:29.212Z,99.10
2023-03-07T20:19:00.025Z,98.60
2023-03-07T20:21:28.330Z,98.50
2023-03-07T20:23:58.994Z,98.50
2023-03-07T20:26:27.220Z,98.70
2023-03-07T20:28:54.981Z,98.60
2023-03-07T20:31:24.489Z,98.50
2023-03-07T20:33:51.665Z,98.70
2023-03-07T20:36:19.646Z,98.40
2023-03-07T20:38:50.541Z,98.50
2023-03-07T20:41:17.934Z,98.30
2023-03-07T20:43:50.420Z,98.30
2023-03-07T20:46:18.374Z,98.40
2023-03-07T20:48:45.542Z,98.40
2023-03-07T20:51:18.706Z,98.40
2023-03-07T20:53:46.112Z,98.40
2023-03-07T20:56:13.196Z,98.20
2023-03-07T20:59:10.248Z,98.20
2023-03-07T21:01:37.367Z,98.30
2023-03-07T21:04:06.352Z,98.20
2023-03-07T21:10:27.718Z,98.40
2023-03-07T21:12:59.898Z,98.30
2023-03-07T21:15:27.026Z,98.70
2023-03-07T21:17:54.096Z,98.30
2023-03-07T21:20:48.895Z,98.40
2023-03-07T21:23:16.066Z,98.80
2023-03-07T21:25:45.157Z,98.40
2023-03-07T21:28:50.538Z,98.60
2023-03-07T21:31:18.506Z,98.80
2023-03-07T21:33:46.632Z,98.80
2023-03-07T21:36:59.809Z,98.70
2023-03-07T21:39:27.017Z,98.70
2023-03-07T21:41:54.562Z,98.70
2023-03-07T21:48:21.825Z,99.00
2023-03-07T21:50:51.627Z,99.10
2023-03-07T21:53:18.930Z,99.20
2023-03-07T21:55:52.530Z,99.10
2023-03-07T21:58:20.199Z,99.00
2023-03-07T22:00:47.533Z,99.60
2023-03-07T22:03:14.612Z,99.10
2023-03-07T22:05:41.710Z,99.10
2023-03-07T22:08:08.794Z,99.20
2023-03-07T22:10:35.897Z,99.20
2023-03-07T22:13:04.567Z,99.30
2023-03-07T22:15:32.857Z,99.80
2023-03-07T22:17:59.928Z,99.50
2023-03-07T22:20:26.954Z,99.60
2023-03-07T22:22:53.994Z,99.90
2023-03-07T22:25:21.056Z,99.80
2023-03-07T22:27:48.124Z,99.80
2023-03-07T22:30:15.218Z,99.50
2023-03-07T22:32:43.985Z,99.50
2023-03-07T22:35:11.022Z,99.40
2023-03-07T22:37:38.084Z,99.20
2023-03-07T22:40:05.679Z,99.10
2023-03-07T22:42:32.792Z,99.20
2023-03-07T22:44:59.844Z,99.10
2023-03-07T22:47:26.946Z,99.40
2023-03-07T22:49:54.015Z,99.50
2023-03-07T22:52:21.106Z,99.50
2023-03-07T22:54:48.229Z,99.70
2023-03-07T22:57:15.360Z,99.90
2023-03-07T22:59:42.424Z,99.90
2023-03-07T23:02:09.458Z,99.90
2023-03-07T23:04:36.549Z,99.90
2023-03-07T23:07:03.634Z,99.90
2023-03-07T23:09:30.708Z,99.90
2023-03-07T23:11:57.771Z,99.90
2023-03-07T23:14:24.836Z,99.90
2023-03-07T23:16:51.866Z,99.90
2023-03-07T23:19:19.001Z,99.90
2023-03-07T23:21:46.033Z,99.90
2023-03-07T23:24:13.105Z,99.90
2023-03-07T23:26:40.203Z,99.90
2023-03-07T23:29:09.826Z,99.90
2023-03-07T23:31:37.617Z,99.90
2023-03-07T23:34:07.642Z,99.90
2023-03-07T23:36:34.714Z,99.90
2023-03-07T23:39:01.784Z,99.90
2023-03-07T23:41:28.892Z,99.90
2023-03-07T23:43:56.731Z,99.90
2023-03-07T23:46:23.966Z,99.90
2023-03-07T23:48:51.151Z,99.90
2023-03-07T23:51:18.211Z,99.90
2023-03-07T23:53:45.247Z,99.90
2023-03-07T23:56:12.399Z,99.90
2023-03-07T23:58:39.494Z,99.90
